createdAt,value
2019-05-05T00:02:08.052Z,99.90
2019-05-05T00:04:40.858Z,99.90
2019-05-05T00:07:17.001Z,99.90
2019-05-05T00:09:45.822Z,99.90
2019-05-05T00:12:34.237Z,99.90
2019-05-05T00:15:09.885Z,99.90
2019-05-05T00:17:38.986Z,99.90
2019-05-05T00:20:14.686Z,99.90
2019-05-05T00:22:45.516Z,99.90
2019-05-05T00:25:17.017Z,99.90
2019-05-05T00:27:49.618Z,99.90
2019-05-05T00:30:21.007Z,99.90
2019-05-05T00:32:57.923Z,99.90
2019-05-05T00:35:26.417Z,99.90
2019-05-05T00:37:57.829Z,99.90
2019-05-05T00:40:29.738Z,99.90
2019-05-05T00:43:07.086Z,99.90
2019-05-05T00:45:37.149Z,99.90
2019-05-05T00:48:16.183Z,99.90
2019-05-05T00:50:47.265Z,99.90
2019-05-05T00:53:18.433Z,99.90
2019-05-05T00:55:51.162Z,99.90
2019-05-05T00:58:26.694Z,99.90
2019-05-05T01:00:56.743Z,99.90
2019-05-05T01:03:26.810Z,99.90
2019-05-05T01:06:04.563Z,99.90
2019-05-05T01:08:29.718Z,99.90
2019-05-05T01:11:01.397Z,99.90
2019-05-05T01:13:35.934Z,99.90
2019-05-05T01:16:04.919Z,99.90
2019-05-05T01:18:35.957Z,99.90
2019-05-05T01:21:18.207Z,99.90
2019-05-05T01:23:46.823Z,99.90
2019-05-05T01:26:18.158Z,99.90
2019-05-05T01:28:49.426Z,99.90
2019-05-05T01:31:21.479Z,99.90
2019-05-05T01:34:08.246Z,99.90
2019-05-05T01:36:38.302Z,99.90
2019-05-05T01:39:11.445Z,99.90
2019-05-05T01:41:45.275Z,99.90
2019-05-05T01:44:16.457Z,99.90
2019-05-05T01:46:48.081Z,99.90
2019-05-05T01:49:18.141Z,99.90
2019-05-05T01:51:46.562Z,99.90
2019-05-05T01:54:24.978Z,99.90
2019-05-05T01:56:56.833Z,99.90
2019-05-05T01:59:26.119Z,99.90
2019-05-05T02:02:05.045Z,99.90
2019-05-05T02:04:36.490Z,99.90
2019-05-05T02:07:05.715Z,99.90
2019-05-05T02:09:44.865Z,99.90
2019-05-05T02:12:16.410Z,99.90
2019-05-05T02:14:44.823Z,99.90
2019-05-05T02:17:17.841Z,99.90
2019-05-05T02:19:46.321Z,99.90
2019-05-05T02:22:20.734Z,99.90
2019-05-05T02:24:55.195Z,99.90
2019-05-05T02:27:26.467Z,99.90
2019-05-05T02:30:06.213Z,99.90
2019-05-05T02:32:45.014Z,99.90
2019-05-05T02:35:17.851Z,99.90
2019-05-05T02:37:50.678Z,99.90
2019-05-05T02:40:24.543Z,99.90
2019-05-05T02:42:54.909Z,99.90
2019-05-05T02:45:37.584Z,99.90
2019-05-05T02:48:14.850Z,99.90
2019-05-05T02:50:57.513Z,99.90
2019-05-05T02:53:33.820Z,99.90
2019-05-05T02:56:11.361Z,99.90
2019-05-05T02:58:44.340Z,99.90
2019-05-05T03:01:34.081Z,99.90
2019-05-05T03:04:04.017Z,99.90
2019-05-05T03:06:34.281Z,99.90
2019-05-05T03:09:09.544Z,99.90
2019-05-05T03:11:43.659Z,99.90
2019-05-05T03:14:19.634Z,99.90
2019-05-05T03:16:50.753Z,99.90
2019-05-05T03:19:23.532Z,99.90
2019-05-05T03:22:06.377Z,99.90
2019-05-05T03:24:45.402Z,99.90
2019-05-05T03:27:07.710Z,99.90
2019-05-05T03:29:38.974Z,99.90
2019-05-05T03:32:16.270Z,99.90
2019-05-05T03:34:47.407Z,99.90
2019-05-05T03:37:16.480Z,99.90
2019-05-05T03:39:47.300Z,99.90
2019-05-05T03:42:24.509Z,99.90
2019-05-05T03:44:57.988Z,99.90
2019-05-05T03:47:31.075Z,99.90
2019-05-05T03:50:11.210Z,99.90
2019-05-05T03:52:43.683Z,99.90
2019-05-05T03:55:16.558Z,99.90
2019-05-05T03:57:48.034Z,99.90
2019-05-05T04:00:23.560Z,99.90
2019-05-05T04:02:59.496Z,99.90
2019-05-05T04:05:29.817Z,99.90
2019-05-05T04:08:01.158Z,99.90
2019-05-05T04:10:31.226Z,99.90
2019-05-05T04:13:06.038Z,99.90
2019-05-05T04:15:35.998Z,99.90
2019-05-05T04:18:17.034Z,99.90
2019-05-05T04:20:49.113Z,99.90
2019-05-05T04:23:17.870Z,99.90
2019-05-05T04:25:49.989Z,99.90
2019-05-05T04:28:18.406Z,99.90
2019-05-05T04:30:49.508Z,99.90
2019-05-05T04:33:23.961Z,99.90
2019-05-05T04:36:00.257Z,99.90
2019-05-05T04:38:34.906Z,99.90
2019-05-05T04:41:06.992Z,99.90
2019-05-05T04:43:38.180Z,99.90
2019-05-05T04:46:06.601Z,99.90
2019-05-05T04:48:36.657Z,99.90
2019-05-05T04:51:21.697Z,99.90
2019-05-05T04:54:10.153Z,99.90
2019-05-05T04:56:41.229Z,99.90
2019-05-05T04:59:23.550Z,99.90
2019-05-05T05:01:54.592Z,99.90
2019-05-05T05:04:44.072Z,99.90
2019-05-05T05:07:16.777Z,99.90
2019-05-05T05:09:45.194Z,99.90
2019-05-05T05:12:19.282Z,99.90
2019-05-05T05:14:49.338Z,99.90
2019-05-05T05:17:25.269Z,99.90
2019-05-05T05:19:54.190Z,99.90
2019-05-05T05:22:33.347Z,99.90
2019-05-05T05:25:01.757Z,99.90
2019-05-05T05:27:34.809Z,99.90
2019-05-05T05:30:06.934Z,99.90
2019-05-05T05:32:44.695Z,99.90
2019-05-05T05:35:18.984Z,99.90
2019-05-05T05:37:49.050Z,99.90
2019-05-05T05:40:19.102Z,99.90
2019-05-05T05:42:47.957Z,99.90
2019-05-05T05:45:27.281Z,99.90
2019-05-05T05:48:06.606Z,99.90
2019-05-05T05:50:45.582Z,99.90
2019-05-05T05:53:15.641Z,99.90
2019-05-05T05:55:53.777Z,99.90
2019-05-05T05:58:24.556Z,99.90
2019-05-05T06:00:57.157Z,99.90
2019-05-05T06:03:28.093Z,99.90
2019-05-05T06:05:58.154Z,99.90
2019-05-05T06:08:26.581Z,99.90
2019-05-05T06:10:59.090Z,99.90
2019-05-05T06:13:30.728Z,99.90
2019-05-05T06:16:04.634Z,99.90
2019-05-05T06:18:34.612Z,99.90
2019-05-05T06:21:04.879Z,99.90
2019-05-05T06:23:34.645Z,99.90
2019-05-05T06:26:06.673Z,99.90
2019-05-05T06:28:34.257Z,99.90
2019-05-05T06:31:08.936Z,99.90
2019-05-05T06:33:37.353Z,99.90
2019-05-05T06:36:11.377Z,99.90
2019-05-05T06:38:44.398Z,99.90
2019-05-05T06:41:28.145Z,99.90
2019-05-05T06:43:58.257Z,99.90
2019-05-05T06:46:31.314Z,99.90
2019-05-05T06:48:59.724Z,99.90
2019-05-05T06:51:33.546Z,99.90
2019-05-05T06:54:04.810Z,99.90
2019-05-05T06:56:34.195Z,99.90
2019-05-05T06:59:13.594Z,99.90
2019-05-05T07:01:44.126Z,99.90
2019-05-05T07:04:14.174Z,99.90
2019-05-05T07:06:54.050Z,99.90
2019-05-05T07:09:15.850Z,99.90
2019-05-05T07:11:54.217Z,99.90
2019-05-05T07:14:25.912Z,99.90
2019-05-05T07:17:02.368Z,99.90
2019-05-05T07:19:30.785Z,99.90
2019-05-05T07:22:03.913Z,99.90
2019-05-05T07:24:43.508Z,99.90
2019-05-05T07:27:13.819Z,99.90
2019-05-05T07:29:43.726Z,99.90
2019-05-05T07:32:14.138Z,99.90
2019-05-05T07:35:00.694Z,99.90
2019-05-05T07:37:34.258Z,99.90
2019-05-05T07:40:05.189Z,99.90
2019-05-05T07:42:35.317Z,99.90
2019-05-05T07:45:20.379Z,99.90
2019-05-05T07:47:43.630Z,99.90
2019-05-05T07:50:28.935Z,99.90
2019-05-05T07:52:46.941Z,99.90
2019-05-05T07:55:15.438Z,99.90
2019-05-05T07:57:45.504Z,99.90
2019-05-05T08:00:17.425Z,99.90
2019-05-05T08:02:46.118Z,99.40
2019-05-05T08:05:14.919Z,99.40
2019-05-05T08:07:44.970Z,99.10
2019-05-05T08:10:13.790Z,98.60
2019-05-05T08:12:53.971Z,98.40
2019-05-05T08:15:23.827Z,98.10
2019-05-05T08:17:54.066Z,97.10
2019-05-05T08:20:33.954Z,97.40
2019-05-05T08:23:08.324Z,96.70
2019-05-05T08:25:45.380Z,96.60
2019-05-05T08:28:27.134Z,96.60
2019-05-05T08:31:25.021Z,96.80
2019-05-05T08:33:59.312Z,97.00
2019-05-05T08:36:27.729Z,96.70
2019-05-05T08:39:04.537Z,96.80
2019-05-05T08:41:35.888Z,96.70
2019-05-05T08:44:05.940Z,97.40
2019-05-05T08:46:37.334Z,96.30
2019-05-05T08:49:07.461Z,95.60
2019-05-05T08:51:40.196Z,95.00
2019-05-05T08:54:16.131Z,94.90
2019-05-05T08:56:44.749Z,94.40
2019-05-05T08:59:14.333Z,93.10
2019-05-05T09:01:45.665Z,92.10
2019-05-05T09:04:14.292Z,89.10
2019-05-05T09:06:48.863Z,86.00
2019-05-05T09:09:24.184Z,85.80
2019-05-05T09:11:57.126Z,84.30
2019-05-05T09:14:25.542Z,82.50
2019-05-05T09:16:53.957Z,82.00
2019-05-05T09:19:23.985Z,85.90
2019-05-05T09:21:55.597Z,88.00
2019-05-05T09:24:34.122Z,87.70
2019-05-05T09:27:29.050Z,90.30
2019-05-05T09:29:59.701Z,92.10
2019-05-05T09:32:34.291Z,93.20
2019-05-05T09:35:08.169Z,93.80
2019-05-05T09:37:47.378Z,91.30
2019-05-05T09:40:18.870Z,89.80
2019-05-05T09:42:48.934Z,91.60
2019-05-05T09:45:24.431Z,92.60
2019-05-05T09:47:54.702Z,93.00
2019-05-05T09:50:23.744Z,93.70
2019-05-05T09:52:53.632Z,94.60
2019-05-05T09:55:25.051Z,94.20
2019-05-05T09:57:55.012Z,94.20
2019-05-05T10:00:25.115Z,93.70
2019-05-05T10:02:54.435Z,94.10
2019-05-05T10:05:23.653Z,92.20
2019-05-05T10:07:54.503Z,90.00
2019-05-05T10:10:33.588Z,89.20
2019-05-05T10:13:04.204Z,86.70
2019-05-05T10:15:32.841Z,85.20
2019-05-05T10:18:07.182Z,84.30
2019-05-05T10:20:38.394Z,81.20
2019-05-05T10:23:15.193Z,79.40
2019-05-05T10:25:47.917Z,70.90
2019-05-05T10:28:19.950Z,72.90
2019-05-05T10:30:50.825Z,73.70
2019-05-05T10:33:21.964Z,76.00
2019-05-05T10:35:54.155Z,75.80
2019-05-05T10:38:25.825Z,75.40
2019-05-05T10:40:54.250Z,79.10
2019-05-05T10:43:23.841Z,78.70
2019-05-05T10:45:54.666Z,76.00
2019-05-05T10:48:26.231Z,73.90
2019-05-05T10:50:54.654Z,68.40
2019-05-05T10:53:29.038Z,68.90
2019-05-05T10:55:57.465Z,62.10
2019-05-05T10:58:33.485Z,57.00
2019-05-05T11:01:04.191Z,58.40
2019-05-05T11:03:37.553Z,57.80
2019-05-05T11:06:06.114Z,53.50
2019-05-05T11:08:48.150Z,47.70
2019-05-05T11:11:16.956Z,45.00
2019-05-05T11:13:54.140Z,42.00
2019-05-05T11:16:24.849Z,43.10
2019-05-05T11:18:56.016Z,43.20
2019-05-05T11:21:24.444Z,43.80
2019-05-05T11:23:53.921Z,43.60
2019-05-05T11:26:24.680Z,43.80
2019-05-05T11:28:54.831Z,44.50
2019-05-05T11:31:24.898Z,43.60
2019-05-05T11:33:54.954Z,43.50
2019-05-05T11:36:34.453Z,43.50
2019-05-05T11:39:09.434Z,42.40
2019-05-05T11:41:39.153Z,41.60
2019-05-05T11:44:11.126Z,42.00
2019-05-05T11:46:44.141Z,42.30
2019-05-05T11:49:21.117Z,41.00
2019-05-05T11:51:49.549Z,43.10
2019-05-05T11:54:17.965Z,44.70
2019-05-05T11:56:48.417Z,45.80
2019-05-05T11:59:16.834Z,45.00
2019-05-05T12:01:45.258Z,45.60
2019-05-05T12:04:14.954Z,48.20
2019-05-05T12:06:50.809Z,49.80
2019-05-05T12:09:26.523Z,48.70
2019-05-05T12:11:54.938Z,49.90
2019-05-05T12:14:27.142Z,51.00
2019-05-05T12:17:01.070Z,52.40
2019-05-05T12:19:29.486Z,53.70
2019-05-05T12:22:00.854Z,51.80
2019-05-05T12:24:36.323Z,51.60
2019-05-05T12:27:06.390Z,56.20
2019-05-05T12:29:35.978Z,52.90
2019-05-05T12:32:04.577Z,49.20
2019-05-05T12:34:36.049Z,48.00
2019-05-05T12:37:05.341Z,49.50
2019-05-05T12:39:39.601Z,51.50
2019-05-05T12:42:19.725Z,48.90
2019-05-05T12:44:53.876Z,49.60
2019-05-05T12:47:26.766Z,50.30
2019-05-05T12:49:59.721Z,52.60
2019-05-05T12:52:33.579Z,50.70
2019-05-05T12:55:04.934Z,52.20
2019-05-05T12:57:34.171Z,53.90
2019-05-05T13:00:06.646Z,54.30
2019-05-05T13:02:39.826Z,55.50
2019-05-05T13:05:14.492Z,56.40
2019-05-05T13:07:48.209Z,57.00
2019-05-05T13:10:26.865Z,57.80
2019-05-05T13:12:57.106Z,58.00
2019-05-05T13:15:25.486Z,58.10
2019-05-05T13:18:03.601Z,57.00
2019-05-05T13:20:33.976Z,57.20
2019-05-05T13:23:09.640Z,57.80
2019-05-05T13:25:55.959Z,62.40
2019-05-05T13:28:24.762Z,64.90
2019-05-05T13:30:54.062Z,66.80
2019-05-05T13:33:24.523Z,67.00
2019-05-05T13:36:04.338Z,63.40
2019-05-05T13:38:34.309Z,63.60
2019-05-05T13:41:11.495Z,60.60
2019-05-05T13:43:41.562Z,61.10
2019-05-05T13:46:14.593Z,58.90
2019-05-05T13:48:45.803Z,58.30
2019-05-05T13:51:15.594Z,60.10
2019-05-05T13:53:46.096Z,60.10
2019-05-05T13:56:18.795Z,62.10
2019-05-05T13:58:51.579Z,60.60
2019-05-05T14:01:23.560Z,56.30
2019-05-05T14:04:06.385Z,57.90
2019-05-05T14:06:45.141Z,59.00
2019-05-05T14:09:18.424Z,59.80
2019-05-05T14:11:46.837Z,62.50
2019-05-05T14:14:15.270Z,61.90
2019-05-05T14:16:45.225Z,60.00
2019-05-05T14:19:15.292Z,62.80
2019-05-05T14:21:46.665Z,66.20
2019-05-05T14:24:38.011Z,68.40
2019-05-05T14:27:14.496Z,66.90
2019-05-05T14:29:46.045Z,60.00
2019-05-05T14:32:16.098Z,58.10
2019-05-05T14:34:55.159Z,61.70
2019-05-05T14:37:44.466Z,61.10
2019-05-05T14:40:17.098Z,64.70
2019-05-05T14:42:47.154Z,65.90
2019-05-05T14:45:19.355Z,67.50
2019-05-05T14:47:53.470Z,64.90
2019-05-05T14:50:24.200Z,65.40
2019-05-05T14:52:53.505Z,65.50
2019-05-05T14:55:26.658Z,65.70
2019-05-05T14:57:55.077Z,64.40
2019-05-05T15:00:26.862Z,66.60
2019-05-05T15:02:58.233Z,68.00
2019-05-05T15:05:52.105Z,67.40
2019-05-05T15:08:25.473Z,64.10
2019-05-05T15:11:14.761Z,65.30
2019-05-05T15:13:46.030Z,68.90
2019-05-05T15:16:24.463Z,74.00
2019-05-05T15:18:54.770Z,83.30
2019-05-05T15:21:23.624Z,86.60
2019-05-05T15:23:55.078Z,89.60
2019-05-05T15:26:49.093Z,90.10
2019-05-05T15:29:08.866Z,90.80
2019-05-05T15:31:43.600Z,90.70
2019-05-05T15:34:15.161Z,90.50
2019-05-05T15:36:43.932Z,90.50
2019-05-05T15:39:13.859Z,90.00
2019-05-05T15:41:47.913Z,87.00
2019-05-05T15:44:16.323Z,85.20
2019-05-05T15:46:50.659Z,83.30
2019-05-05T15:49:23.780Z,82.10
2019-05-05T15:52:08.599Z,79.10
2019-05-05T15:54:37.526Z,76.00
2019-05-05T15:57:14.360Z,76.20
2019-05-05T15:59:50.761Z,77.50
2019-05-05T16:02:24.446Z,71.90
2019-05-05T16:04:54.358Z,65.40
2019-05-05T16:07:28.350Z,62.90
2019-05-05T16:09:56.765Z,61.00
2019-05-05T16:12:34.179Z,63.70
2019-05-05T16:15:14.130Z,64.80
2019-05-05T16:17:59.013Z,66.80
2019-05-05T16:20:35.924Z,66.50
2019-05-05T16:23:14.918Z,67.20
2019-05-05T16:25:46.627Z,69.40
2019-05-05T16:28:18.494Z,71.70
2019-05-05T16:30:46.918Z,76.40
2019-05-05T16:33:15.341Z,79.70
2019-05-05T16:35:43.873Z,80.60
2019-05-05T16:38:16.807Z,83.30
2019-05-05T16:40:53.614Z,83.20
2019-05-05T16:43:24.545Z,82.00
2019-05-05T16:45:54.234Z,83.00
2019-05-05T16:48:25.312Z,85.40
2019-05-05T16:51:00.031Z,85.10
2019-05-05T16:53:35.073Z,81.50
2019-05-05T16:56:06.258Z,83.80
2019-05-05T16:58:34.686Z,82.70
2019-05-05T17:01:05.215Z,81.80
2019-05-05T17:03:36.619Z,81.90
2019-05-05T17:06:14.011Z,81.10
2019-05-05T17:08:44.416Z,78.20
2019-05-05T17:11:15.966Z,76.70
2019-05-05T17:13:48.713Z,77.50
2019-05-05T17:16:24.691Z,76.60
2019-05-05T17:19:11.098Z,75.70
2019-05-05T17:21:46.880Z,76.50
2019-05-05T17:24:16.947Z,75.90
2019-05-05T17:26:45.358Z,74.70
2019-05-05T17:29:14.715Z,73.20
2019-05-05T17:31:46.322Z,71.50
2019-05-05T17:34:17.242Z,72.00
2019-05-05T17:36:45.654Z,71.20
2019-05-05T17:39:14.081Z,69.90
2019-05-05T17:41:49.838Z,70.70
2019-05-05T17:44:24.188Z,68.20
2019-05-05T17:47:13.880Z,69.00
2019-05-05T17:50:04.341Z,71.80
2019-05-05T17:52:37.130Z,72.40
2019-05-05T17:55:24.237Z,72.70
2019-05-05T17:58:01.603Z,74.50
2019-05-05T18:00:28.150Z,76.70
2019-05-05T18:02:58.202Z,78.30
2019-05-05T18:05:44.850Z,80.50
2019-05-05T18:08:35.621Z,82.00
2019-05-05T18:11:25.366Z,83.50
2019-05-05T18:14:01.594Z,85.80
2019-05-05T18:16:30.017Z,88.00
2019-05-05T18:18:58.449Z,88.50
2019-05-05T18:21:29.482Z,89.50
2019-05-05T18:23:59.968Z,90.70
2019-05-05T18:26:31.345Z,91.00
2019-05-05T18:29:00.389Z,91.20
2019-05-05T18:31:28.805Z,91.40
2019-05-05T18:34:00.157Z,91.70
2019-05-05T18:36:28.580Z,92.10
2019-05-05T18:38:59.927Z,92.70
2019-05-05T18:41:34.329Z,93.30
2019-05-05T18:44:04.563Z,93.80
2019-05-05T18:46:38.381Z,94.70
2019-05-05T18:49:07.140Z,95.10
2019-05-05T18:51:38.449Z,95.50
2019-05-05T18:54:07.174Z,95.90
2019-05-05T18:56:36.639Z,96.30
2019-05-05T18:59:06.698Z,96.70
2019-05-05T19:01:44.529Z,97.30
2019-05-05T19:04:14.972Z,97.70
2019-05-05T19:06:56.785Z,97.70
2019-05-05T19:09:27.138Z,97.90
2019-05-05T19:11:55.565Z,98.00
2019-05-05T19:14:24.342Z,98.40
2019-05-05T19:16:55.677Z,98.50
2019-05-05T19:19:27.112Z,98.70
2019-05-05T19:22:04.420Z,98.80
2019-05-05T19:24:35.142Z,99.10
2019-05-05T19:27:04.682Z,99.10
2019-05-05T19:29:33.411Z,99.20
2019-05-05T19:32:04.854Z,99.40
2019-05-05T19:34:35.332Z,99.50
2019-05-05T19:37:06.731Z,99.50
2019-05-05T19:39:35.153Z,99.60
2019-05-05T19:42:06.542Z,99.80
2019-05-05T19:44:38.117Z,99.90
2019-05-05T19:47:20.321Z,99.90
2019-05-05T19:49:55.985Z,99.90
2019-05-05T19:52:24.639Z,99.90
2019-05-05T19:54:55.922Z,99.90
2019-05-05T19:57:27.377Z,99.90
2019-05-05T19:59:55.797Z,99.90
2019-05-05T20:02:24.210Z,99.90
2019-05-05T20:04:53.656Z,99.90
2019-05-05T20:07:27.278Z,99.90
2019-05-05T20:09:56.879Z,99.90
2019-05-05T20:12:30.519Z,99.90
2019-05-05T20:15:04.101Z,99.90
2019-05-05T20:17:36.857Z,99.90
2019-05-05T20:20:13.835Z,99.90
2019-05-05T20:22:44.289Z,99.90
2019-05-05T20:25:16.853Z,99.90
2019-05-05T20:27:55.755Z,99.90
2019-05-05T20:30:25.918Z,99.90
2019-05-05T20:33:03.905Z,99.90
2019-05-05T20:35:40.594Z,99.90
2019-05-05T20:38:08.358Z,99.90
2019-05-05T20:40:38.749Z,99.90
2019-05-05T20:43:14.399Z,99.90
2019-05-05T20:45:44.335Z,99.90
2019-05-05T20:48:12.874Z,99.90
2019-05-05T20:50:49.630Z,99.90
2019-05-05T20:53:20.742Z,99.90
2019-05-05T20:55:49.161Z,99.90
2019-05-05T20:58:17.582Z,99.90
2019-05-05T21:00:45.997Z,99.90
2019-05-05T21:03:20.353Z,99.90
2019-05-05T21:05:48.779Z,99.90
2019-05-05T21:08:18.970Z,99.90
2019-05-05T21:10:53.554Z,99.90
2019-05-05T21:13:21.876Z,99.90
2019-05-05T21:15:50.297Z,99.90
2019-05-05T21:18:23.764Z,99.90
2019-05-05T21:20:54.650Z,99.90
2019-05-05T21:23:30.810Z,99.90
2019-05-05T21:26:09.721Z,99.90
2019-05-05T21:28:41.158Z,99.90
2019-05-05T21:31:14.540Z,99.90
2019-05-05T21:33:54.799Z,99.90
2019-05-05T21:36:31.010Z,99.90
2019-05-05T21:39:14.849Z,99.90
2019-05-05T21:41:45.207Z,99.90
2019-05-05T21:44:15.118Z,99.90
2019-05-05T21:46:44.341Z,99.90
2019-05-05T21:49:13.601Z,99.90
2019-05-05T21:51:43.903Z,99.90
2019-05-05T21:54:23.565Z,99.90
2019-05-05T21:57:09.989Z,99.90
2019-05-05T21:59:54.443Z,99.90
2019-05-05T22:02:15.394Z,99.90
2019-05-05T22:04:54.370Z,99.90
2019-05-05T22:07:25.541Z,99.90
2019-05-05T22:09:56.794Z,99.90
2019-05-05T22:12:36.356Z,99.90
2019-05-05T22:15:10.947Z,99.90
2019-05-05T22:17:42.051Z,99.90
2019-05-05T22:20:14.834Z,99.90
2019-05-05T22:22:49.385Z,99.90
2019-05-05T22:25:23.445Z,99.90
2019-05-05T22:27:54.531Z,99.90
2019-05-05T22:30:31.849Z,99.90
2019-05-05T22:33:05.799Z,99.90
2019-05-05T22:35:34.883Z,99.90
2019-05-05T22:38:05.842Z,99.90
2019-05-05T22:40:34.135Z,99.90
2019-05-05T22:43:03.698Z,99.90
2019-05-05T22:45:34.340Z,99.90
2019-05-05T22:48:04.628Z,99.90
2019-05-05T22:50:35.918Z,99.90
2019-05-05T22:53:04.354Z,99.90
2019-05-05T22:55:34.423Z,99.90
2019-05-05T22:58:09.509Z,99.90
2019-05-05T23:00:38.183Z,99.90
2019-05-05T23:03:10.901Z,99.90
2019-05-05T23:06:00.497Z,99.90
2019-05-05T23:08:31.586Z,99.90
2019-05-05T23:11:04.037Z,99.90
2019-05-05T23:13:33.718Z,99.90
2019-05-05T23:16:17.963Z,99.90
2019-05-05T23:18:49.209Z,99.90
2019-05-05T23:21:19.269Z,99.90
2019-05-05T23:23:56.248Z,99.90
2019-05-05T23:26:29.530Z,99.90
2019-05-05T23:28:58.501Z,99.90
2019-05-05T23:31:40.649Z,99.90
2019-05-05T23:34:09.085Z,99.90
2019-05-05T23:36:40.154Z,99.90
2019-05-05T23:39:08.667Z,99.90
2019-05-05T23:41:44.314Z,99.90
2019-05-05T23:44:15.576Z,99.90
2019-05-05T23:46:48.401Z,99.90
2019-05-05T23:49:19.711Z,99.90
2019-05-05T23:51:50.817Z,99.90
2019-05-05T23:54:20.878Z,99.90
2019-05-05T23:56:50.945Z,99.90
2019-05-05T23:59:24.253Z,99.90
